createdAt,value
2019-03-05T00:04:57.185Z,85.20
2019-03-05T00:10:02.003Z,85.30
2019-03-05T00:15:12.316Z,85.30
2019-03-05T00:20:17.126Z,84.40
2019-03-05T00:25:27.605Z,84.50
2019-03-05T00:30:35.290Z,84.50
2019-03-05T00:35:45.649Z,84.10
2019-03-05T00:40:56.406Z,83.50
2019-03-05T00:46:09.825Z,83.00
2019-03-05T00:51:48.718Z,83.00
2019-03-05T00:56:59.229Z,83.00
2019-03-05T01:02:15.707Z,82.10
2019-03-05T01:07:21.032Z,82.00
2019-03-05T01:12:26.179Z,81.50
2019-03-05T01:17:31.024Z,81.60
2019-03-05T01:22:35.869Z,81.10
2019-03-05T01:27:40.636Z,80.50
2019-03-05T01:32:47.117Z,80.40
2019-03-05T01:37:51.958Z,79.80
2019-03-05T01:42:56.865Z,80.00
2019-03-05T01:48:01.778Z,80.30
2019-03-05T01:53:07.192Z,79.70
2019-03-05T01:58:12.007Z,80.10
2019-03-05T02:03:16.828Z,79.30
2019-03-05T02:08:21.854Z,80.20
2019-03-05T02:13:27.102Z,80.50
2019-03-05T02:18:32.129Z,80.00
2019-03-05T02:23:59.096Z,79.80
2019-03-05T02:29:12.838Z,80.10
2019-03-05T02:34:35.456Z,80.70
2019-03-05T02:39:46.107Z,81.00
2019-03-05T02:45:10.510Z,81.10
2019-03-05T02:50:35.241Z,81.10
2019-03-05T02:55:45.895Z,80.10
2019-03-05T03:01:01.182Z,80.60
2019-03-05T03:06:07.674Z,80.50
2019-03-05T03:11:12.518Z,80.70
2019-03-05T03:16:17.452Z,80.30
2019-03-05T03:21:22.197Z,80.50
2019-03-05T03:26:27.022Z,81.00
2019-03-05T03:31:31.776Z,81.00
2019-03-05T03:36:36.593Z,81.70
2019-03-05T03:41:41.417Z,81.60
2019-03-05T03:46:46.236Z,81.30
2019-03-05T03:51:51.513Z,81.40
2019-03-05T03:56:56.491Z,81.40
2019-03-05T04:02:01.305Z,81.30
2019-03-05T04:07:06.130Z,80.50
2019-03-05T04:12:10.893Z,80.70
2019-03-05T04:17:15.884Z,80.20
2019-03-05T04:22:20.635Z,80.00
2019-03-05T04:27:25.471Z,79.60
2019-03-05T04:32:30.150Z,79.20
2019-03-05T04:37:34.972Z,79.50
2019-03-05T04:42:39.802Z,79.50
2019-03-05T04:47:44.649Z,80.00
2019-03-05T04:52:49.410Z,79.70
2019-03-05T04:57:54.756Z,80.20
2019-03-05T05:02:59.593Z,79.60
2019-03-05T05:08:04.731Z,80.00
2019-03-05T05:13:09.483Z,80.40
2019-03-05T05:18:14.352Z,80.30
2019-03-05T05:23:19.182Z,80.30
2019-03-05T05:28:24.008Z,80.00
2019-03-05T05:33:28.769Z,80.60
2019-03-05T05:38:33.591Z,81.10
2019-03-05T05:43:38.416Z,81.10
2019-03-05T05:48:43.177Z,80.40
2019-03-05T05:53:48.225Z,81.10
2019-03-05T05:58:52.907Z,80.80
2019-03-05T06:03:57.733Z,81.30
2019-03-05T06:09:02.559Z,81.20
2019-03-05T06:14:07.385Z,81.30
2019-03-05T06:19:12.256Z,81.00
2019-03-05T06:24:17.004Z,81.10
2019-03-05T06:29:21.772Z,80.50
2019-03-05T06:34:26.541Z,80.40
2019-03-05T06:39:31.289Z,80.60
2019-03-05T06:44:36.608Z,80.10
2019-03-05T06:49:41.408Z,80.00
2019-03-05T06:54:46.194Z,79.60
2019-03-05T06:59:51.012Z,79.10
2019-03-05T07:04:58.736Z,79.00
2019-03-05T07:10:12.316Z,78.20
2019-03-05T07:15:39.552Z,79.10
2019-03-05T07:20:53.341Z,78.20
2019-03-05T07:25:58.164Z,78.00
2019-03-05T07:31:02.988Z,77.20
2019-03-05T07:36:07.996Z,76.70
2019-03-05T07:41:12.827Z,77.60
2019-03-05T07:46:17.588Z,75.50
2019-03-05T07:51:22.416Z,75.10
2019-03-05T07:56:27.245Z,75.20
2019-03-05T08:01:32.201Z,76.00
2019-03-05T08:06:39.373Z,76.00
2019-03-05T08:11:44.217Z,75.40
2019-03-05T08:16:49.075Z,73.70
2019-03-05T08:21:54.000Z,73.80
2019-03-05T08:26:58.945Z,72.30
2019-03-05T08:32:04.317Z,75.20
2019-03-05T08:37:09.172Z,75.50
2019-03-05T08:42:13.993Z,75.70
2019-03-05T08:47:18.832Z,76.00
2019-03-05T08:52:23.657Z,76.20
2019-03-05T08:57:28.489Z,77.10
2019-03-05T09:02:33.259Z,77.00
2019-03-05T09:07:38.664Z,77.40
2019-03-05T09:12:43.488Z,77.60
2019-03-05T09:17:48.310Z,77.80
2019-03-05T09:22:53.217Z,77.70
2019-03-05T09:27:57.981Z,76.80
2019-03-05T09:33:02.798Z,76.50
2019-03-05T09:38:07.798Z,77.30
2019-03-05T09:43:12.622Z,77.30
2019-03-05T09:48:17.445Z,75.20
2019-03-05T09:53:22.388Z,76.10
2019-03-05T09:58:27.187Z,76.50
2019-03-05T10:03:31.928Z,76.20
2019-03-05T10:08:36.741Z,75.30
2019-03-05T10:13:41.567Z,73.20
2019-03-05T10:18:46.324Z,72.40
2019-03-05T10:23:51.292Z,72.20
2019-03-05T10:28:56.081Z,71.00
2019-03-05T10:34:00.899Z,74.10
2019-03-05T10:39:08.659Z,73.60
2019-03-05T10:44:13.584Z,75.10
2019-03-05T10:49:18.410Z,74.30
2019-03-05T10:54:23.161Z,73.80
2019-03-05T10:59:27.917Z,71.60
2019-03-05T11:04:32.836Z,71.90
2019-03-05T11:09:37.653Z,72.90
2019-03-05T11:14:42.404Z,73.70
2019-03-05T11:19:47.157Z,75.10
2019-03-05T11:24:52.060Z,74.90
2019-03-05T11:29:56.808Z,74.50
2019-03-05T11:35:01.566Z,73.20
2019-03-05T11:40:20.771Z,71.90
2019-03-05T11:45:23.528Z,71.40
2019-03-05T11:50:28.351Z,71.10
2019-03-05T11:55:33.180Z,70.70
2019-03-05T12:00:57.508Z,71.70
2019-03-05T12:06:02.394Z,82.00
2019-03-05T12:11:07.216Z,81.00
2019-03-05T12:16:12.141Z,81.00
2019-03-05T12:21:17.343Z,81.40
2019-03-05T12:26:22.257Z,81.60
2019-03-05T12:31:27.366Z,80.30
2019-03-05T12:36:32.190Z,78.70
2019-03-05T12:41:37.022Z,76.20
2019-03-05T12:46:41.852Z,72.70
2019-03-05T12:51:46.714Z,70.20
2019-03-05T12:56:51.467Z,66.50
2019-03-05T13:01:56.311Z,66.90
2019-03-05T13:07:02.112Z,67.80
2019-03-05T13:12:06.939Z,68.20
2019-03-05T13:17:11.764Z,66.00
2019-03-05T13:22:16.682Z,66.20
2019-03-05T13:27:22.740Z,68.40
2019-03-05T13:32:27.950Z,69.90
2019-03-05T13:37:32.786Z,69.90
2019-03-05T13:42:39.045Z,67.20
2019-03-05T13:47:52.724Z,68.00
2019-03-05T13:53:14.492Z,68.30
2019-03-05T13:58:27.907Z,68.60
2019-03-05T14:03:38.507Z,69.50
2019-03-05T14:08:55.000Z,69.00
2019-03-05T14:13:59.827Z,69.20
2019-03-05T14:19:06.008Z,69.50
2019-03-05T14:24:11.016Z,69.80
2019-03-05T14:29:15.931Z,69.00
2019-03-05T14:34:20.723Z,69.40
2019-03-05T14:39:29.857Z,68.70
2019-03-05T14:44:39.751Z,68.30
2019-03-05T14:49:42.617Z,68.50
2019-03-05T14:54:48.445Z,70.60
2019-03-05T14:59:53.473Z,70.20
2019-03-05T15:04:58.210Z,70.10
2019-03-05T15:10:03.042Z,68.80
2019-03-05T15:15:19.613Z,70.60
2019-03-05T15:20:24.478Z,69.90
2019-03-05T15:25:29.692Z,68.80
2019-03-05T15:30:34.702Z,68.40
2019-03-05T15:35:39.550Z,68.40
2019-03-05T15:40:45.827Z,69.70
2019-03-05T15:45:50.708Z,71.70
2019-03-05T15:51:16.223Z,73.50
2019-03-05T15:56:40.065Z,73.00
2019-03-05T16:01:44.884Z,73.60
2019-03-05T16:06:49.788Z,72.90
2019-03-05T16:11:54.897Z,72.50
2019-03-05T16:16:59.722Z,72.20
2019-03-05T16:22:04.545Z,71.70
2019-03-05T16:27:09.394Z,72.00
2019-03-05T16:32:17.577Z,69.70
2019-03-05T16:37:23.971Z,69.70
2019-03-05T16:42:36.406Z,68.30
2019-03-05T16:47:57.914Z,67.30
2019-03-05T16:53:04.372Z,66.70
2019-03-05T16:58:14.259Z,66.80
2019-03-05T17:03:24.216Z,66.90
2019-03-05T17:08:49.048Z,66.90
2019-03-05T17:13:53.878Z,67.30
2019-03-05T17:18:58.933Z,67.50
2019-03-05T17:24:04.171Z,67.70
2019-03-05T17:29:09.410Z,69.10
2019-03-05T17:34:14.513Z,70.40
2019-03-05T17:39:20.228Z,73.00
2019-03-05T17:44:25.070Z,74.70
2019-03-05T17:49:29.891Z,75.10
2019-03-05T17:54:34.712Z,75.20
2019-03-05T17:59:39.553Z,74.70
2019-03-05T18:04:45.482Z,74.60
2019-03-05T18:09:50.494Z,74.60
2019-03-05T18:14:55.151Z,73.50
2019-03-05T18:20:00.890Z,73.60
2019-03-05T18:25:08.898Z,73.40
2019-03-05T18:30:22.029Z,73.40
2019-03-05T18:35:26.863Z,73.00
2019-03-05T18:40:31.697Z,73.10
2019-03-05T18:45:38.608Z,73.40
2019-03-05T18:50:43.468Z,74.00
2019-03-05T18:55:48.610Z,74.20
2019-03-05T19:00:53.423Z,74.80
2019-03-05T19:05:58.564Z,75.20
2019-03-05T19:11:03.386Z,75.60
2019-03-05T19:16:08.404Z,76.90
2019-03-05T19:21:13.735Z,77.90
2019-03-05T19:26:18.687Z,79.20
2019-03-05T19:31:23.509Z,80.10
2019-03-05T19:36:28.350Z,80.80
2019-03-05T19:41:33.200Z,81.80
2019-03-05T19:46:38.048Z,82.70
2019-03-05T19:51:42.891Z,83.00
2019-03-05T19:56:47.806Z,83.00
2019-03-05T20:01:52.710Z,83.50
2019-03-05T20:06:58.554Z,83.30
2019-03-05T20:12:03.404Z,83.20
2019-03-05T20:17:15.702Z,82.60
2019-03-05T20:22:20.391Z,82.70
2019-03-05T20:27:25.168Z,83.00
2019-03-05T20:32:30.466Z,83.40
2019-03-05T20:37:35.266Z,84.10
2019-03-05T20:42:40.026Z,84.40
2019-03-05T20:47:44.891Z,84.20
2019-03-05T20:52:49.723Z,84.20
2019-03-05T20:57:54.562Z,84.10
2019-03-05T21:03:00.991Z,84.00
2019-03-05T21:08:06.095Z,83.90
2019-03-05T21:13:10.946Z,83.90
2019-03-05T21:18:19.477Z,84.10
2019-03-05T21:23:24.553Z,84.10
2019-03-05T21:28:29.399Z,83.50
2019-03-05T21:33:34.098Z,84.80
2019-03-05T21:38:38.870Z,84.00
2019-03-05T21:43:43.962Z,83.80
2019-03-05T21:48:48.798Z,83.90
2019-03-05T21:53:53.638Z,85.40
2019-03-05T21:58:58.488Z,88.30
2019-03-05T22:04:03.267Z,90.50
2019-03-05T22:09:08.216Z,91.40
2019-03-05T22:14:13.051Z,92.10
2019-03-05T22:19:18.070Z,92.70
2019-03-05T22:24:23.256Z,93.20
2019-03-05T22:29:28.087Z,93.30
2019-03-05T22:34:32.909Z,93.80
2019-03-05T22:39:38.662Z,93.40
2019-03-05T22:44:43.791Z,94.20
2019-03-05T22:49:48.694Z,94.80
2019-03-05T22:54:53.826Z,95.30
2019-03-05T22:59:58.663Z,95.90
2019-03-05T23:05:05.656Z,96.30
2019-03-05T23:10:12.748Z,97.00
2019-03-05T23:15:18.559Z,97.70
2019-03-05T23:20:23.566Z,97.90
2019-03-05T23:25:28.664Z,98.30
2019-03-05T23:30:33.492Z,98.20
2019-03-05T23:35:38.346Z,98.50
2019-03-05T23:40:43.605Z,98.50
2019-03-05T23:45:48.460Z,98.70
2019-03-05T23:50:53.316Z,99.00
2019-03-05T23:55:58.163Z,99.00
